Time;durP1;ratioP1;P1;durP2;ratioP2;P2;SDS_P1;SDS_P2;PMS_P1;PMS_P2;Temp;Humidity;BMP_temperature;BMP_pressure;BME280_temperature;BME280_humidity;BME280_pressure;Samples;Min_cycle;Max_cycle;Signal;HPM_P1;HPM_P2
2022/05/28 00:01:05;;;;;;;5.90;1.83;;;15.10;54.70;;;;;;5028183;28;20463;-43
2022/05/28 00:03:33;;;;;;;6.07;1.60;;;15.20;53.80;;;;;;5027347;28;20551;-43
2022/05/28 00:06:00;;;;;;;2.17;1.13;;;15.10;54.00;;;;;;5010142;28;20469;-43
2022/05/28 00:08:28;;;;;;;8.33;1.80;;;15.10;54.50;;;;;;5027632;28;20448;-43
2022/05/28 00:10:57;;;;;;;3.43;1.13;;;15.10;54.40;;;;;;5010154;28;20984;-43
2022/05/28 00:13:24;;;;;;;3.80;2.47;;;15.10;53.50;;;;;;5027933;28;20530;-43
2022/05/28 00:15:51;;;;;;;4.90;1.90;;;15.10;53.80;;;;;;5027898;28;20935;-42
2022/05/28 00:18:18;;;;;;;2.30;1.00;;;15.00;54.10;;;;;;5027428;28;20453;-42
2022/05/28 00:20:45;;;;;;;2.77;1.10;;;15.00;53.60;;;;;;5025629;28;20459;-42
2022/05/28 00:23:13;;;;;;;7.90;2.80;;;15.00;54.20;;;;;;5027507;28;21036;-42
2022/05/28 00:25:40;;;;;;;4.97;1.53;;;15.00;53.90;;;;;;5025260;28;20502;-42
2022/05/28 00:28:07;;;;;;;5.73;1.70;;;15.00;54.10;;;;;;5027691;28;20447;-42
2022/05/28 00:30:33;;;;;;;7.87;1.97;;;14.90;54.30;;;;;;5026588;28;20944;-42
2022/05/28 00:33:00;;;;;;;3.20;1.03;;;14.90;54.40;;;;;;5027827;28;20447;-42
2022/05/28 00:35:27;;;;;;;6.53;2.50;;;14.90;54.60;;;;;;5025920;28;20566;-42
2022/05/28 00:37:53;;;;;;;6.20;2.17;;;14.90;54.10;;;;;;5010756;28;20974;-42
2022/05/28 00:40:23;;;;;;;5.00;1.43;;;14.90;54.50;;;;;;5008635;28;20470;-43
2022/05/28 00:42:50;;;;;;;4.97;1.60;;;14.90;54.60;;;;;;5026910;28;20488;-42
2022/05/28 00:45:18;;;;;;;5.30;1.60;;;14.80;55.00;;;;;;5027562;28;20779;-42
2022/05/28 00:47:49;;;;;;;4.73;1.37;;;14.80;55.10;;;;;;5025250;28;20463;-42
2022/05/28 00:50:17;;;;;;;4.33;1.43;;;14.70;55.30;;;;;;5009457;28;20530;-42
2022/05/28 00:52:44;;;;;;;5.67;2.50;;;14.70;55.70;;;;;;5009069;28;20447;-42
2022/05/28 00:55:13;;;;;;;5.40;1.47;;;14.70;55.80;;;;;;5026649;28;21089;-42
2022/05/28 00:57:41;;;;;;;6.50;1.50;;;14.70;55.00;;;;;;5026080;28;20566;-42
2022/05/28 01:00:12;;;;;;;3.07;1.43;;;14.60;55.10;;;;;;5025476;28;20979;-42
2022/05/28 01:02:57;;;;;;;1.73;1.40;;;14.50;55.90;;;;;;5027456;28;20788;-43
2022/05/28 01:06:03;;;;;;;2.43;1.40;;;14.50;56.30;;;;;;5009113;28;20529;-43
2022/05/28 01:08:37;;;;;;;3.43;1.67;;;14.50;56.90;;;;;;5025494;28;20501;-43
2022/05/28 01:11:27;;;;;;;4.73;1.40;;;14.40;56.80;;;;;;5025741;28;20451;-43
2022/05/28 01:14:02;;;;;;;8.40;2.30;;;14.40;57.00;;;;;;5022177;28;20471;-43
2022/05/28 01:16:37;;;;;;;4.60;1.70;;;14.40;56.70;;;;;;5025246;28;20455;-43
2022/05/28 01:19:16;;;;;;;4.43;1.47;;;14.30;56.60;;;;;;5024591;28;20450;-43
2022/05/28 01:21:57;;;;;;;2.90;1.17;;;14.30;56.40;;;;;;5008956;28;20546;-42
2022/05/28 01:24:37;;;;;;;3.53;1.30;;;14.20;57.30;;;;;;5025649;28;20470;-42
2022/05/28 01:27:09;;;;;;;9.20;2.00;;;14.20;57.50;;;;;;5026189;28;20810;-42
2022/05/28 01:29:41;;;;;;;5.13;1.97;;;14.20;57.00;;;;;;5021330;28;20485;-42
2022/05/28 01:32:10;;;;;;;5.00;1.50;;;14.10;57.30;;;;;;5013346;28;21074;-42
2022/05/28 01:34:38;;;;;;;4.50;1.70;;;14.00;57.60;;;;;;5029337;28;20482;-42
2022/05/28 01:37:05;;;;;;;5.07;1.83;;;14.00;57.50;;;;;;5012727;28;20485;-42
2022/05/28 01:39:33;;;;;;;7.70;1.43;;;14.00;58.10;;;;;;5027972;28;20907;-42
2022/05/28 01:42:02;;;;;;;4.77;1.53;;;14.00;58.10;;;;;;5030564;28;20743;-42
2022/05/28 01:44:30;;;;;;;8.20;2.27;;;14.00;58.50;;;;;;5031326;28;20570;-43
2022/05/28 01:46:57;;;;;;;3.73;1.70;;;14.00;58.10;;;;;;5014012;28;20522;-42
2022/05/28 01:49:25;;;;;;;5.00;1.40;;;14.00;58.30;;;;;;5030966;28;20948;-43
2022/05/28 01:51:58;;;;;;;5.30;1.63;;;13.90;58.20;;;;;;5025967;28;20589;-43
2022/05/28 01:54:31;;;;;;;4.20;1.60;;;13.90;58.10;;;;;;5030172;28;20455;-43
2022/05/28 01:56:59;;;;;;;6.67;1.50;;;13.90;58.60;;;;;;5028259;28;20452;-42
2022/05/28 01:59:30;;;;;;;6.50;3.70;;;13.90;57.90;;;;;;5012670;28;20542;-42
2022/05/28 02:02:00;;;;;;;2.87;1.27;;;13.90;58.40;;;;;;5028153;28;20471;-42
2022/05/28 02:04:30;;;;;;;4.80;1.43;;;13.80;58.90;;;;;;5029298;28;21036;-42
2022/05/28 02:06:57;;;;;;;4.17;1.20;;;13.80;58.50;;;;;;5028809;28;20502;-42
2022/05/28 02:09:32;;;;;;;8.07;1.83;;;13.80;58.60;;;;;;5012867;28;20501;-42
2022/05/28 02:12:11;;;;;;;2.30;1.73;;;13.80;58.90;;;;;;5029746;28;20469;-42
2022/05/28 02:14:41;;;;;;;3.83;1.57;;;13.70;59.10;;;;;;5027320;28;20446;-43
2022/05/28 02:17:35;;;;;;;4.97;1.47;;;13.70;58.70;;;;;;5013003;28;20447;-42
2022/05/28 02:20:27;;;;;;;6.43;1.43;;;13.70;59.00;;;;;;5028203;28;20477;-43
2022/05/28 02:23:25;;;;;;;4.57;1.40;;;13.70;58.40;;;;;;5028162;28;20489;-42
2022/05/28 02:25:55;;;;;;;6.00;1.40;;;13.70;58.90;;;;;;5030832;28;20450;-42
2022/05/28 02:28:23;;;;;;;5.20;1.43;;;13.60;59.20;;;;;;5010933;28;20462;-42
2022/05/28 02:30:53;;;;;;;5.60;1.63;;;13.60;59.50;;;;;;5011400;28;20946;-42
2022/05/28 02:33:20;;;;;;;9.43;2.10;;;13.50;59.20;;;;;;5028147;28;20976;-42
2022/05/28 02:35:47;;;;;;;3.83;1.13;;;13.50;59.40;;;;;;5028981;28;20937;-42
2022/05/28 02:38:15;;;;;;;4.37;1.20;;;13.50;59.30;;;;;;5013766;28;20454;-43
2022/05/28 02:40:42;;;;;;;1.80;1.00;;;13.50;59.00;;;;;;5012349;28;20455;-42
2022/05/28 02:43:09;;;;;;;6.23;1.50;;;13.50;59.70;;;;;;5011823;28;20446;-42
2022/05/28 02:45:36;;;;;;;1.80;1.00;;;13.50;59.80;;;;;;5027690;28;20468;-42
2022/05/28 02:48:02;;;;;;;4.40;1.27;;;13.40;59.60;;;;;;5028396;28;20994;-42
2022/05/28 02:50:29;;;;;;;4.80;1.50;;;13.40;59.60;;;;;;5011979;28;20554;-43
2022/05/28 02:52:57;;;;;;;4.57;1.37;;;13.30;60.00;;;;;;5028441;28;21594;-47
2022/05/28 02:55:24;;;;;;;3.63;1.93;;;13.30;60.40;;;;;;5030724;28;20973;-47
2022/05/28 02:57:51;;;;;;;4.57;1.37;;;13.30;60.20;;;;;;5029971;28;20510;-47
2022/05/28 03:00:18;;;;;;;2.80;1.83;;;13.20;60.30;;;;;;5015704;28;20447;-47
2022/05/28 03:02:45;;;;;;;5.60;1.77;;;13.20;60.70;;;;;;5018206;28;20849;-48
2022/05/28 03:05:15;;;;;;;2.80;1.40;;;13.20;60.70;;;;;;5030323;28;20467;-48
2022/05/28 03:07:41;;;;;;;3.83;1.70;;;13.20;60.50;;;;;;5031021;28;20477;-48
2022/05/28 03:10:11;;;;;;;5.50;1.30;;;13.30;60.10;;;;;;5031125;28;21081;-47
2022/05/28 03:12:39;;;;;;;2.80;1.03;;;13.30;59.80;;;;;;5031863;28;21008;-48
2022/05/28 03:15:07;;;;;;;4.80;1.10;;;13.30;59.70;;;;;;5021070;28;21003;-48
2022/05/28 03:17:34;;;;;;;5.80;1.70;;;13.30;59.40;;;;;;5032828;28;20635;-48
2022/05/28 03:20:02;;;;;;;2.63;1.20;;;13.30;59.10;;;;;;5014843;28;20463;-47
2022/05/28 03:22:29;;;;;;;17.20;2.13;;;13.30;59.00;;;;;;5018957;28;20463;-48
2022/05/28 03:24:56;;;;;;;6.00;1.43;;;13.20;59.60;;;;;;5031689;28;20547;-48
2022/05/28 03:27:24;;;;;;;1.77;1.37;;;13.20;59.80;;;;;;5031789;28;20489;-47
2022/05/28 03:29:50;;;;;;;5.13;1.67;;;13.20;59.70;;;;;;5030625;28;20530;-47
2022/05/28 03:32:17;;;;;;;4.27;1.27;;;13.20;60.10;;;;;;5029883;28;20471;-48
2022/05/28 03:34:44;;;;;;;4.50;1.30;;;13.30;60.40;;;;;;5029897;28;20493;-48
2022/05/28 03:37:10;;;;;;;5.33;2.27;;;13.30;60.30;;;;;;5031178;28;20466;-48
2022/05/28 03:39:37;;;;;;;2.37;1.80;;;13.30;60.00;;;;;;5012127;28;20467;-47
2022/05/28 03:42:04;;;;;;;4.83;1.50;;;13.30;60.40;;;;;;5027613;28;20453;-47
2022/05/28 03:44:31;;;;;;;3.60;1.63;;;13.30;60.40;;;;;;5033139;28;20485;-48
2022/05/28 03:47:00;;;;;;;4.53;1.30;;;13.40;60.20;;;;;;5018165;28;20451;-48
2022/05/28 03:49:33;;;;;;;3.77;1.20;;;13.40;59.50;;;;;;5014102;28;20554;-47
2022/05/28 03:52:01;;;;;;;6.10;2.00;;;13.40;59.30;;;;;;5029094;28;20456;-48
2022/05/28 03:54:28;;;;;;;7.67;1.90;;;13.40;59.40;;;;;;5014145;28;20536;-47
2022/05/28 03:57:02;;;;;;;3.73;1.73;;;13.40;59.00;;;;;;5031407;28;20486;-48
2022/05/28 03:59:29;;;;;;;8.40;1.80;;;13.40;59.20;;;;;;5030025;28;20528;-47
2022/05/28 04:01:56;;;;;;;6.63;2.37;;;13.40;59.40;;;;;;5029839;28;20477;-48
2022/05/28 04:04:23;;;;;;;4.53;2.00;;;13.40;59.50;;;;;;5029459;28;20500;-48
2022/05/28 04:06:51;;;;;;;3.20;1.60;;;13.40;59.50;;;;;;5006585;28;20527;-48
2022/05/28 04:09:19;;;;;;;6.77;1.60;;;13.40;58.90;;;;;;5031367;28;20546;-48
2022/05/28 04:11:45;;;;;;;4.33;1.60;;;13.40;59.40;;;;;;5014873;28;20459;-48
2022/05/28 04:14:12;;;;;;;2.27;1.50;;;13.50;59.80;;;;;;5032070;28;20829;-48
2022/05/28 04:16:39;;;;;;;6.83;1.43;;;13.50;59.60;;;;;;5031466;28;21034;-48
2022/05/28 04:19:05;;;;;;;5.60;2.37;;;13.50;59.60;;;;;;5014905;28;20459;-47
2022/05/28 04:21:33;;;;;;;5.23;2.07;;;13.50;59.20;;;;;;5032237;28;20506;-48
2022/05/28 04:23:59;;;;;;;6.33;1.73;;;13.50;59.90;;;;;;5033099;28;20452;-48
2022/05/28 04:26:26;;;;;;;3.20;1.60;;;13.50;60.00;;;;;;5008877;28;20450;-48
2022/05/28 04:28:53;;;;;;;4.40;2.30;;;13.50;59.60;;;;;;5031834;28;20528;-48
2022/05/28 04:31:20;;;;;;;5.70;1.60;;;13.50;59.90;;;;;;5031952;28;20555;-48
2022/05/28 04:33:47;;;;;;;3.73;1.53;;;13.50;59.70;;;;;;5028689;28;20466;-48
2022/05/28 04:36:14;;;;;;;2.83;1.83;;;13.50;60.00;;;;;;5033162;28;20490;-48
2022/05/28 04:38:41;;;;;;;4.80;1.93;;;13.50;60.20;;;;;;5015429;28;20531;-48
2022/05/28 04:41:08;;;;;;;3.27;1.40;;;13.50;59.90;;;;;;5014376;28;20928;-48
2022/05/28 04:43:35;;;;;;;2.70;1.43;;;13.50;60.10;;;;;;5031266;28;20466;-48
2022/05/28 04:46:02;;;;;;;4.13;1.40;;;13.50;60.30;;;;;;5015203;28;20952;-48
2022/05/28 04:48:31;;;;;;;5.40;1.43;;;13.50;60.40;;;;;;5031757;28;20875;-48
2022/05/28 04:50:57;;;;;;;5.67;2.20;;;13.50;60.50;;;;;;5031451;28;20458;-47
2022/05/28 04:53:24;;;;;;;10.57;2.43;;;13.60;59.90;;;;;;5031194;28;20451;-48
2022/05/28 04:55:51;;;;;;;4.97;1.70;;;13.60;60.30;;;;;;5011336;28;20750;-48
2022/05/28 04:58:18;;;;;;;2.90;2.00;;;13.60;60.40;;;;;;5031789;28;20454;-48
2022/05/28 05:00:46;;;;;;;5.20;1.90;;;13.70;60.20;;;;;;5015735;28;20455;-47
2022/05/28 05:03:13;;;;;;;6.70;2.23;;;13.70;60.20;;;;;;5015582;28;20466;-48
2022/05/28 05:05:41;;;;;;;3.33;1.37;;;13.80;60.40;;;;;;5030092;28;20458;-48
2022/05/28 05:08:08;;;;;;;2.73;1.50;;;13.80;60.30;;;;;;5036935;28;20920;-48
2022/05/28 05:10:34;;;;;;;3.00;1.43;;;13.80;59.40;;;;;;5036006;28;20497;-48
2022/05/28 05:13:02;;;;;;;2.53;1.40;;;13.80;59.10;;;;;;5037473;28;20443;-48
2022/05/28 05:15:29;;;;;;;6.50;1.63;;;13.90;59.20;;;;;;5036280;28;20494;-48
2022/05/28 05:17:55;;;;;;;4.60;1.50;;;13.90;59.90;;;;;;5038200;28;20542;-48
2022/05/28 05:20:22;;;;;;;6.00;1.67;;;14.00;59.10;;;;;;5033541;28;20474;-48
2022/05/28 05:22:52;;;;;;;4.40;1.53;;;14.00;59.10;;;;;;5036017;28;20456;-48
2022/05/28 05:25:19;;;;;;;3.33;1.40;;;14.00;59.50;;;;;;5036199;28;20446;-48
2022/05/28 05:27:46;;;;;;;6.50;1.60;;;14.00;59.50;;;;;;5036752;28;20447;-48
2022/05/28 05:30:14;;;;;;;8.37;1.80;;;14.00;59.40;;;;;;5036630;28;20466;-48
2022/05/28 05:32:40;;;;;;;5.87;2.20;;;14.00;59.30;;;;;;5035806;28;20473;-48
2022/05/28 05:35:08;;;;;;;4.63;1.80;;;14.00;58.90;;;;;;5017037;28;20468;-48
2022/05/28 05:37:35;;;;;;;7.03;1.77;;;14.00;59.00;;;;;;5033611;28;20497;-48
2022/05/28 05:40:03;;;;;;;3.63;1.43;;;14.00;59.30;;;;;;5035687;28;20457;-48
2022/05/28 05:42:30;;;;;;;5.40;1.53;;;13.90;59.30;;;;;;5034544;28;20534;-48
2022/05/28 05:44:57;;;;;;;9.50;2.93;;;13.90;59.20;;;;;;5035317;28;20501;-48
2022/05/28 05:47:23;;;;;;;3.10;1.27;;;13.90;59.70;;;;;;5034858;28;20493;-47
2022/05/28 05:49:50;;;;;;;5.43;1.70;;;13.80;60.60;;;;;;5035639;28;20458;-47
2022/05/28 05:52:18;;;;;;;2.50;1.60;;;13.80;60.10;;;;;;5036362;28;20545;-47
2022/05/28 05:54:49;;;;;;;3.93;1.27;;;13.80;60.40;;;;;;5019349;28;20474;-47
2022/05/28 05:57:16;;;;;;;1.50;1.17;;;13.90;60.10;;;;;;5018910;28;20552;-47
2022/05/28 05:59:43;;;;;;;5.03;1.73;;;13.80;60.30;;;;;;5036795;28;20486;-47
2022/05/28 06:02:10;;;;;;;4.87;1.50;;;13.80;60.60;;;;;;5025389;28;20458;-47
2022/05/28 06:04:37;;;;;;;2.50;2.20;;;13.90;61.10;;;;;;5037564;28;20537;-47
2022/05/28 06:07:06;;;;;;;3.90;1.53;;;13.90;60.70;;;;;;5034488;28;20469;-47
2022/05/28 06:09:33;;;;;;;4.63;2.23;;;13.90;61.50;;;;;;5034113;28;21019;-47
2022/05/28 06:12:00;;;;;;;3.13;1.37;;;14.00;60.60;;;;;;5034824;28;20558;-48
2022/05/28 06:14:27;;;;;;;10.83;2.50;;;14.00;61.00;;;;;;5033938;28;20554;-48
2022/05/28 06:16:54;;;;;;;4.10;1.70;;;14.10;60.60;;;;;;5034939;28;21004;-48
2022/05/28 06:19:21;;;;;;;4.13;1.63;;;14.10;60.20;;;;;;5020285;28;20467;-48
2022/05/28 06:21:48;;;;;;;6.07;2.23;;;14.20;60.50;;;;;;5036944;28;20740;-48
2022/05/28 06:24:14;;;;;;;3.13;1.37;;;14.30;60.50;;;;;;5035199;28;20450;-48
2022/05/28 06:26:41;;;;;;;5.33;1.80;;;14.30;60.50;;;;;;5036056;28;20465;-48
2022/05/28 06:29:08;;;;;;;7.63;1.90;;;14.40;60.90;;;;;;5036355;28;20459;-48
2022/05/28 06:31:35;;;;;;;3.30;1.57;;;14.50;60.10;;;;;;5011168;28;20569;-48
2022/05/28 06:34:01;;;;;;;4.00;1.53;;;14.50;60.10;;;;;;5033657;28;20483;-48
2022/05/28 06:36:28;;;;;;;8.17;3.20;;;14.60;60.20;;;;;;5036368;28;21145;-48
2022/05/28 06:38:55;;;;;;;5.50;1.60;;;14.60;59.90;;;;;;5034282;28;20453;-48
2022/05/28 06:41:22;;;;;;;6.23;2.13;;;14.70;59.60;;;;;;5036743;28;20446;-48
2022/05/28 06:43:50;;;;;;;4.80;1.53;;;14.80;60.00;;;;;;5036420;28;20467;-48
2022/05/28 06:46:16;;;;;;;6.43;2.00;;;14.80;59.80;;;;;;5035903;28;20483;-48
2022/05/28 06:48:44;;;;;;;4.93;2.23;;;14.90;59.50;;;;;;5035549;28;20462;-48
2022/05/28 06:51:11;;;;;;;3.03;1.70;;;14.90;59.70;;;;;;5021004;28;20519;-48
2022/05/28 06:53:43;;;;;;;8.10;1.73;;;15.00;59.40;;;;;;5032085;28;20458;-45
2022/05/28 06:56:11;;;;;;;10.33;2.27;;;15.10;59.80;;;;;;5012247;28;20871;-45
2022/05/28 06:58:39;;;;;;;5.80;2.03;;;15.10;59.80;;;;;;5028258;28;20451;-45
2022/05/28 07:01:07;;;;;;;5.87;1.70;;;15.20;60.40;;;;;;5029162;28;20451;-45
2022/05/28 07:03:34;;;;;;;6.30;2.00;;;15.30;60.10;;;;;;5028909;28;20450;-45
2022/05/28 07:06:01;;;;;;;3.23;1.73;;;15.40;60.20;;;;;;5028060;28;20457;-45
2022/05/28 07:08:28;;;;;;;5.00;2.20;;;15.40;59.90;;;;;;5029844;28;20457;-45
2022/05/28 07:10:58;;;;;;;3.03;1.33;;;15.50;60.40;;;;;;5010005;28;20458;-45
2022/05/28 07:13:26;;;;;;;5.20;2.07;;;15.50;60.10;;;;;;5025288;28;20459;-44
2022/05/28 07:15:53;;;;;;;3.60;1.93;;;15.50;60.10;;;;;;5025960;28;20488;-45
2022/05/28 07:18:20;;;;;;;6.30;1.47;;;15.50;59.20;;;;;;5025273;28;20547;-44
2022/05/28 07:20:47;;;;;;;3.40;1.80;;;15.60;58.40;;;;;;5026721;28;20450;-45
2022/05/28 07:23:18;;;;;;;5.63;2.83;;;15.50;58.40;;;;;;5011516;28;20447;-45
2022/05/28 07:25:46;;;;;;;4.90;1.50;;;15.50;59.10;;;;;;5010780;28;20509;-45
2022/05/28 07:28:25;;;;;;;3.47;1.57;;;15.50;58.60;;;;;;5025408;28;20444;-45
2022/05/28 07:30:55;;;;;;;5.23;1.70;;;15.50;58.60;;;;;;5027001;28;20495;-45
2022/05/28 07:33:25;;;;;;;3.90;2.10;;;15.60;58.40;;;;;;5026816;28;21027;-44
2022/05/28 07:35:53;;;;;;;5.47;1.87;;;15.60;58.70;;;;;;5027324;28;20980;-44
2022/05/28 07:38:21;;;;;;;4.07;1.77;;;15.70;57.80;;;;;;5028597;28;20469;-45
2022/05/28 07:40:49;;;;;;;2.20;0.90;;;15.70;57.90;;;;;;5011307;28;20816;-45
2022/05/28 07:43:16;;;;;;;9.13;1.60;;;15.70;57.90;;;;;;5027645;28;20550;-44
2022/05/28 07:45:44;;;;;;;3.53;1.30;;;15.60;57.60;;;;;;5021816;28;20852;-44
2022/05/28 07:48:12;;;;;;;4.93;1.20;;;15.60;57.80;;;;;;5011273;28;20455;-44
2022/05/28 07:50:40;;;;;;;3.47;1.83;;;15.60;56.40;;;;;;5026265;28;20456;-44
2022/05/28 07:53:07;;;;;;;4.90;1.23;;;15.60;56.10;;;;;;5027646;28;20485;-44
2022/05/28 07:55:35;;;;;;;2.70;1.33;;;15.70;55.60;;;;;;5026533;28;20945;-44
2022/05/28 07:58:10;;;;;;;3.13;1.93;;;15.80;56.10;;;;;;5023283;28;20499;-45
2022/05/28 08:00:39;;;;;;;2.73;1.20;;;15.90;56.00;;;;;;5027392;28;20898;-45
2022/05/28 08:03:07;;;;;;;7.63;1.67;;;16.00;56.20;;;;;;5010121;28;20465;-44
2022/05/28 08:05:35;;;;;;;7.37;1.60;;;16.00;56.70;;;;;;5024832;28;20983;-44
2022/05/28 08:08:03;;;;;;;3.80;1.77;;;16.00;56.20;;;;;;5026472;28;20506;-43
2022/05/28 08:10:29;;;;;;;2.77;1.50;;;16.00;56.20;;;;;;5023932;28;20548;-45
2022/05/28 08:13:08;;;;;;;2.50;1.17;;;16.10;56.50;;;;;;5026637;28;20463;-44
2022/05/28 08:15:37;;;;;;;2.63;1.43;;;16.10;56.70;;;;;;5009352;28;20448;-45
2022/05/28 08:18:04;;;;;;;2.70;1.33;;;16.20;54.80;;;;;;5025499;28;20491;-45
2022/05/28 08:23:18;;;;;;;3.67;1.83;;;16.40;55.30;;;;;;5023940;28;20891;-45
2022/05/28 08:25:47;;;;;;;2.93;1.10;;;16.70;54.60;;;;;;5027239;28;20975;-45
2022/05/28 08:28:15;;;;;;;3.57;1.50;;;17.00;54.20;;;;;;5024434;28;20686;-45
2022/05/28 08:30:43;;;;;;;3.90;1.53;;;17.30;53.50;;;;;;5017279;28;20835;-48
2022/05/28 08:33:12;;;;;;;1.97;1.60;;;17.50;52.40;;;;;;5036535;28;20482;-48
2022/05/28 08:35:40;;;;;;;2.07;1.30;;;17.50;52.40;;;;;;5032244;28;20460;-48
2022/05/28 08:38:13;;;;;;;2.67;1.70;;;17.60;52.50;;;;;;5033658;28;20565;-49
2022/05/28 08:41:02;;;;;;;4.63;1.50;;;17.70;52.90;;;;;;5024269;28;20463;-49
2022/05/28 08:43:33;;;;;;;4.20;1.90;;;17.70;53.10;;;;;;5037797;28;20543;-48
2022/05/28 08:46:00;;;;;;;4.07;1.70;;;17.60;52.60;;;;;;5032595;28;20507;-48
2022/05/28 08:48:51;;;;;;;2.50;1.43;;;17.60;52.50;;;;;;5024291;28;20450;-48
2022/05/28 08:51:37;;;;;;;1.57;1.30;;;17.50;52.50;;;;;;5037121;28;20494;-49
2022/05/28 08:54:19;;;;;;;2.50;0.97;;;17.50;52.30;;;;;;5029015;28;20504;-48
2022/05/28 08:56:48;;;;;;;6.03;1.97;;;17.50;52.20;;;;;;5039298;28;20501;-48
2022/05/28 08:59:22;;;;;;;4.53;1.47;;;17.70;51.40;;;;;;5029991;28;20872;-48
2022/05/28 09:01:54;;;;;;;6.10;1.03;;;17.90;51.60;;;;;;5039585;28;20455;-48
2022/05/28 09:04:30;;;;;;;3.60;1.30;;;18.10;51.90;;;;;;5042054;28;20451;-48
2022/05/28 09:07:01;;;;;;;1.57;1.47;;;18.30;51.30;;;;;;5043105;28;20510;-48
2022/05/28 09:09:40;;;;;;;2.80;1.27;;;18.50;51.40;;;;;;5023396;28;20467;-48
2022/05/28 09:12:31;;;;;;;2.80;1.17;;;18.80;49.80;;;;;;5036825;28;20475;-48
2022/05/28 09:14:58;;;;;;;2.67;1.30;;;18.80;49.30;;;;;;5037408;28;20540;-48
2022/05/28 09:17:33;;;;;;;1.67;1.23;;;18.80;49.40;;;;;;5034181;28;20573;-48
2022/05/28 09:20:09;;;;;;;3.17;1.47;;;18.80;49.40;;;;;;5037066;28;20503;-48
2022/05/28 09:22:36;;;;;;;2.27;1.27;;;18.60;50.70;;;;;;5037268;28;20518;-48
2022/05/28 09:25:03;;;;;;;3.00;1.27;;;18.40;50.70;;;;;;5035391;28;20440;-48
2022/05/28 09:27:37;;;;;;;2.50;1.50;;;18.10;51.30;;;;;;5039911;28;20456;-48
2022/05/28 09:30:25;;;;;;;2.53;1.50;;;17.90;51.70;;;;;;5045279;28;20550;-48
2022/05/28 09:33:05;;;;;;;3.90;1.57;;;17.90;52.60;;;;;;5035194;28;20444;-48
2022/05/28 09:35:38;;;;;;;1.97;1.37;;;18.10;51.40;;;;;;5022818;28;20465;-48
2022/05/28 09:38:10;;;;;;;1.40;1.07;;;18.30;49.60;;;;;;5038117;28;20569;-48
2022/05/28 09:40:49;;;;;;;3.60;1.17;;;18.50;49.90;;;;;;5020820;28;20476;-48
2022/05/28 09:43:21;;;;;;;1.90;1.30;;;18.90;49.40;;;;;;5023987;28;20449;-48
2022/05/28 09:46:34;;;;;;;3.40;1.37;;;19.10;48.00;;;;;;5018467;28;20866;-48
2022/05/28 09:49:23;;;;;;;4.30;1.50;;;19.30;48.30;;;;;;4916009;29;20445;-47
2022/05/28 09:52:18;;;;;;;2.90;1.37;;;19.30;48.10;;;;;;4922402;29;20689;-42
2022/05/28 09:54:45;;;;;;;2.90;1.27;;;19.40;48.60;;;;;;5006855;28;20452;-43
2022/05/28 09:57:21;;;;;;;3.33;1.40;;;19.50;48.50;;;;;;5029658;28;20487;-43
2022/05/28 10:00:11;;;;;;;2.30;1.37;;;19.50;48.90;;;;;;5028270;28;20447;-43
2022/05/28 10:05:57;;;;;;;4.20;1.17;;;19.60;48.90;;;;;;5028850;28;20455;-43
2022/05/28 10:08:32;;;;;;;3.90;1.67;;;19.50;48.80;;;;;;5029365;28;20451;-43
2022/05/28 10:11:05;;;;;;;2.50;1.20;;;19.30;48.40;;;;;;5029126;28;20451;-43
2022/05/28 10:13:51;;;;;;;3.97;1.70;;;19.20;48.50;;;;;;5012966;28;20466;-43
2022/05/28 10:16:26;;;;;;;1.43;1.13;;;19.10;48.00;;;;;;5029320;28;20529;-43
2022/05/28 10:19:19;;;;;;;1.80;1.00;;;19.10;47.70;;;;;;5029974;28;20455;-43
2022/05/28 10:21:51;;;;;;;5.53;1.23;;;19.00;47.90;;;;;;5028572;28;20463;-43
2022/05/28 10:24:20;;;;;;;2.77;1.27;;;18.90;47.90;;;;;;5012922;28;20545;-42
2022/05/28 10:26:56;;;;;;;4.07;1.70;;;18.80;48.00;;;;;;5012733;28;20452;-43
2022/05/28 10:29:38;;;;;;;2.40;1.00;;;19.00;48.00;;;;;;5028337;28;21004;-43
2022/05/28 10:32:32;;;;;;;3.47;1.27;;;19.20;47.30;;;;;;5012123;28;20470;-43
2022/05/28 10:35:13;;;;;;;2.67;1.20;;;19.30;46.10;;;;;;5029670;28;20447;-43
2022/05/28 10:37:40;;;;;;;4.87;1.60;;;19.50;45.80;;;;;;5028037;28;20537;-43
2022/05/28 10:40:16;;;;;;;1.17;0.90;;;19.50;45.60;;;;;;5028036;28;20444;-42
2022/05/28 10:42:43;;;;;;;2.50;1.00;;;19.60;45.40;;;;;;5029060;28;20629;-42
2022/05/28 10:45:14;;;;;;;3.50;1.80;;;19.60;46.30;;;;;;5012377;28;20443;-42
2022/05/28 10:47:58;;;;;;;3.27;1.10;;;19.60;46.80;;;;;;5026055;28;20544;-42
2022/05/28 10:50:37;;;;;;;2.43;1.10;;;19.70;46.40;;;;;;5027158;28;20451;-43
2022/05/28 10:53:19;;;;;;;3.80;1.30;;;19.60;46.50;;;;;;5027880;28;20538;-42
2022/05/28 10:56:04;;;;;;;2.40;1.30;;;19.50;46.20;;;;;;5027952;28;20455;-42
2022/05/28 10:59:15;;;;;;;2.97;1.00;;;19.40;44.90;;;;;;5023968;28;20489;-42
2022/05/28 11:02:01;;;;;;;1.80;1.37;;;19.30;44.70;;;;;;4988567;28;20464;-42
2022/05/28 11:04:53;;;;;;;4.57;1.37;;;19.20;44.00;;;;;;5027661;28;20960;-43
2022/05/28 11:07:49;;;;;;;3.30;1.40;;;19.10;45.20;;;;;;5026482;28;20471;-43
2022/05/28 11:10:32;;;;;;;3.80;1.07;;;19.00;46.40;;;;;;5028603;28;20688;-47
2022/05/28 11:13:13;;;;;;;4.37;1.67;;;19.10;45.00;;;;;;5034623;28;20535;-45
2022/05/28 11:16:23;;;;;;;2.13;1.20;;;19.10;44.80;;;;;;5025678;28;20462;-45
2022/05/28 11:19:29;;;;;;;1.17;1.00;;;19.10;43.50;;;;;;5027773;28;20514;-42
2022/05/28 11:21:56;;;;;;;3.80;1.03;;;19.00;43.00;;;;;;4977920;28;20448;-43
2022/05/28 11:24:34;;;;;;;5.03;1.53;;;18.90;43.40;;;;;;5011908;28;20467;-44
2022/05/28 11:27:35;;;;;;;10.37;2.03;;;18.80;44.60;;;;;;5026894;28;20879;-45
2022/05/28 11:30:23;;;;;;;4.30;1.63;;;18.80;44.70;;;;;;5028322;28;20967;-45
2022/05/28 11:33:12;;;;;;;3.17;1.50;;;18.70;46.40;;;;;;5027460;28;20449;-44
2022/05/28 11:35:47;;;;;;;1.27;1.00;;;18.70;46.00;;;;;;5033411;28;20506;-45
2022/05/28 11:38:20;;;;;;;5.17;1.60;;;18.70;47.20;;;;;;5028464;28;20515;-45
2022/05/28 11:41:16;;;;;;;1.73;1.30;;;18.70;46.30;;;;;;5027377;28;20968;-45
2022/05/28 11:44:12;;;;;;;6.60;1.63;;;18.80;45.70;;;;;;5026758;28;20451;-45
2022/05/28 11:46:44;;;;;;;1.50;1.20;;;18.70;44.30;;;;;;5027685;28;20475;-45
2022/05/28 11:52:21;;;;;;;2.47;1.20;;;18.80;46.50;;;;;;5021592;28;20470;-45
2022/05/28 11:54:55;;;;;;;1.70;1.20;;;18.90;46.10;;;;;;5026993;28;20448;-45
2022/05/28 11:57:30;;;;;;;2.50;1.30;;;18.90;46.40;;;;;;5030234;28;20856;-48
2022/05/28 11:59:59;;;;;;;2.30;2.10;;;19.00;45.90;;;;;;5028732;28;20461;-48
2022/05/28 12:02:33;;;;;;;2.37;1.77;;;19.10;44.40;;;;;;5045476;28;20505;-47
2022/05/28 12:05:01;;;;;;;1.83;1.10;;;19.10;43.60;;;;;;5042784;28;20439;-47
2022/05/28 12:07:31;;;;;;;2.37;1.50;;;19.10;44.00;;;;;;5048081;28;20508;-47
2022/05/28 12:09:59;;;;;;;2.77;1.47;;;19.10;44.20;;;;;;5030680;28;20515;-47
2022/05/28 12:12:38;;;;;;;1.70;1.40;;;19.10;45.40;;;;;;5030933;28;20483;-47
2022/05/28 12:15:24;;;;;;;1.43;1.20;;;19.10;44.70;;;;;;5043258;28;20737;-47
2022/05/28 12:18:15;;;;;;;3.27;1.70;;;19.10;42.60;;;;;;5028638;28;20519;-47
2022/05/28 12:21:23;;;;;;;3.20;1.10;;;19.20;43.00;;;;;;5040245;28;20448;-47
2022/05/28 12:23:50;;;;;;;1.87;1.13;;;19.10;43.30;;;;;;5017816;28;20459;-47
2022/05/28 12:29:22;;;;;;;4.03;1.20;;;19.00;43.70;;;;;;5043186;28;20455;-48
2022/05/28 12:31:49;;;;;;;2.03;1.27;;;19.00;44.40;;;;;;5025650;28;20471;-47
2022/05/28 12:34:23;;;;;;;1.70;0.87;;;19.00;44.70;;;;;;5042985;28;20467;-48
2022/05/28 12:36:53;;;;;;;3.00;1.20;;;19.00;43.60;;;;;;5044467;28;20469;-48
2022/05/28 12:39:34;;;;;;;5.50;2.70;;;19.10;44.70;;;;;;5029436;28;20555;-48
2022/05/28 12:42:03;;;;;;;6.93;1.37;;;19.20;45.00;;;;;;5045401;28;20956;-48
2022/05/28 12:44:30;;;;;;;2.57;1.50;;;19.40;44.50;;;;;;5045253;28;21298;-48
2022/05/28 12:46:59;;;;;;;2.50;1.53;;;19.40;44.60;;;;;;5029298;28;20859;-48
2022/05/28 12:49:37;;;;;;;2.33;1.70;;;19.50;44.90;;;;;;5031145;28;20492;-48
2022/05/28 12:52:19;;;;;;;3.53;1.50;;;19.50;43.50;;;;;;5030150;28;20523;-48
2022/05/28 12:54:48;;;;;;;1.60;0.73;;;19.50;43.20;;;;;;5046166;28;20463;-47
2022/05/28 12:57:30;;;;;;;2.30;0.87;;;19.50;38.50;;;;;;5043570;28;20948;-47
2022/05/28 13:00:28;;;;;;;0.80;0.50;;;19.40;37.50;;;;;;5027083;28;20452;-48
2022/05/28 13:02:57;;;;;;;1.07;0.80;;;19.40;37.10;;;;;;5045137;28;20544;-48
2022/05/28 13:05:32;;;;;;;1.77;1.10;;;19.40;37.80;;;;;;5047658;28;20511;-48
2022/05/28 13:08:23;;;;;;;6.50;1.50;;;19.50;42.00;;;;;;5043590;28;20530;-48
2022/05/28 13:10:54;;;;;;;1.43;1.00;;;19.60;42.60;;;;;;5044074;28;20470;-47
2022/05/28 13:13:58;;;;;;;3.30;1.60;;;19.60;41.70;;;;;;5044414;28;20463;-47
2022/05/28 13:16:52;;;;;;;1.37;1.10;;;19.70;42.00;;;;;;5045985;28;20538;-47
2022/05/28 13:20:03;;;;;;;3.43;1.30;;;19.90;42.90;;;;;;5029066;28;20539;-47
2022/05/28 13:22:48;;;;;;;2.43;1.40;;;20.00;43.30;;;;;;5042376;28;20470;-47
2022/05/28 13:25:21;;;;;;;1.83;1.13;;;20.00;43.00;;;;;;5042822;28;20475;-47